Hauptseite
Satellitenwetter 15-Tage PrognosenKlimaSeewetter Wirbelstürme Blitz FlughäfenFAQ Newsletter Über uns
Wetter : Europa Afrika Nordamerika Südamerika Asien Australien-Ozeanien Andere
Sprachen Kontakt

Newquay Cornwall, England

Breite: 50-26N, Länge: 005-00W, Höhe: 119 m


METAR: EGHQ 221450Z 27015KT 9999 BKN026 13/07 Q1027
TAF: EGHQ 221358Z 2215/2221 26015KT 9999 SCT025

Zeit: 16:23 (15:23 UTC)

Beobachtung

Neuester Wetterbericht von vor 33 Minuten, um 14:50 UTC
Wind 15 kt aus West
Temperatur 13°C
Luftfeuchtigkeit 67%
Luftdruck 1027 hPa
Sichtweite 10 km oder mehr
Durchbrochene Bewölkung in der Höhe von 2600 ft

Maßeinheiten ändern

Prognose

Neuester Wetterbericht von vor 1 Stunde und 25 Minuten, um 13:58 UTC
Gültige Prognose vom 22 um 15 UTC bis 22 um 21 UTC
Wind 15 kt aus West
Sichtweite 10 km oder mehr
Aufgelockert bewölkt in der Höhe von 2500 ft
Die Angaben auf diesen Webseiten unterliegen einer Erklärung über den Haftungsausschluss
Wetter : Europa Afrika Nordamerika Südamerika Asien Australien-Ozeanien Andere
Satellitenwetter 15-Tage PrognosenKlimaSeewetter Wirbelstürme Blitz FlughäfenFAQ Sprachen Kontakt Newsletter Über uns